Time;durP1;ratioP1;P1;durP2;ratioP2;P2;SDS_P1;SDS_P2;PMS_P1;PMS_P2;Temp;Humidity;BMP_temperature;BMP_pressure;BME280_temperature;BME280_humidity;BME280_pressure;Samples;Min_cycle;Max_cycle;Signal;HPM_P1;HPM_P2
2023/03/06 00:00:22;;;;;;;3.70;0.70;;;1.90;99.90;;;;;;5045269;28;20600;-40
2023/03/06 00:02:48;;;;;;;4.35;0.60;;;1.80;99.90;;;;;;5045312;28;20090;-40
2023/03/06 00:05:15;;;;;;;4.57;0.52;;;1.70;99.90;;;;;;5046362;28;20041;-40
2023/03/06 00:07:41;;;;;;;6.30;0.70;;;1.70;99.90;;;;;;5045484;28;20048;-41
2023/03/06 00:10:11;;;;;;;6.63;1.02;;;1.80;99.90;;;;;;5045709;28;20132;-40
2023/03/06 00:12:37;;;;;;;2.53;0.57;;;1.70;99.90;;;;;;5046105;28;20132;-40
2023/03/06 00:15:03;;;;;;;4.40;1.13;;;1.80;99.90;;;;;;5045477;28;20124;-40
2023/03/06 00:17:28;;;;;;;4.72;0.63;;;1.70;99.90;;;;;;5045778;28;20049;-40
2023/03/06 00:19:54;;;;;;;3.83;0.60;;;1.70;99.90;;;;;;5045701;28;20059;-40
2023/03/06 00:22:20;;;;;;;4.00;0.55;;;1.80;99.90;;;;;;5046025;28;20059;-40
2023/03/06 00:24:45;;;;;;;3.85;0.60;;;1.80;99.90;;;;;;5045461;28;20040;-40
2023/03/06 00:27:11;;;;;;;3.13;0.50;;;2.00;99.90;;;;;;5045437;28;20128;-40
2023/03/06 00:29:37;;;;;;;6.65;0.70;;;1.90;99.90;;;;;;5045446;28;20123;-40
2023/03/06 00:32:03;;;;;;;4.22;0.57;;;2.00;99.90;;;;;;5045491;28;20106;-40
2023/03/06 00:34:28;;;;;;;2.38;0.47;;;1.80;99.90;;;;;;5045487;28;20044;-40
2023/03/06 00:36:54;;;;;;;1.95;0.50;;;1.90;99.90;;;;;;5045439;28;20486;-40
2023/03/06 00:39:20;;;;;;;6.15;0.93;;;1.90;99.90;;;;;;5046032;28;20402;-40
2023/03/06 00:41:45;;;;;;;6.35;1.08;;;1.90;99.90;;;;;;5045634;28;20049;-40
2023/03/06 00:44:11;;;;;;;4.20;0.80;;;1.90;99.90;;;;;;5043605;28;20048;-40
2023/03/06 00:46:36;;;;;;;5.43;0.88;;;1.80;99.90;;;;;;5046031;28;20049;-40
2023/03/06 00:49:02;;;;;;;3.30;0.63;;;1.90;99.90;;;;;;5043710;28;20084;-40
2023/03/06 00:51:28;;;;;;;6.57;0.55;;;1.90;99.90;;;;;;5045484;28;20064;-40
2023/03/06 00:53:54;;;;;;;8.20;0.80;;;1.90;99.90;;;;;;5045303;28;20093;-40
2023/03/06 00:56:20;;;;;;;5.15;0.77;;;1.90;99.90;;;;;;5045603;28;20372;-40
2023/03/06 00:58:45;;;;;;;6.38;1.13;;;1.90;99.90;;;;;;5045696;28;20037;-40
2023/03/06 01:01:11;;;;;;;7.57;1.85;;;1.90;99.90;;;;;;5043600;28;20047;-40
2023/03/06 01:03:37;;;;;;;5.07;0.70;;;2.10;99.90;;;;;;5046009;28;20045;-40
2023/03/06 01:06:03;;;;;;;4.65;0.70;;;1.80;99.90;;;;;;5045624;28;20049;-40
2023/03/06 01:08:28;;;;;;;6.90;1.13;;;1.80;99.90;;;;;;5045964;28;20079;-40
2023/03/06 01:10:54;;;;;;;2.10;0.63;;;1.80;99.90;;;;;;5045747;28;20518;-40
2023/03/06 01:13:20;;;;;;;5.10;1.05;;;1.90;99.90;;;;;;5048636;28;20049;-40
2023/03/06 01:15:45;;;;;;;5.35;0.77;;;1.90;99.90;;;;;;5049638;28;20541;-40
2023/03/06 01:18:11;;;;;;;2.63;0.63;;;1.90;99.90;;;;;;5049277;28;20040;-40
2023/03/06 01:20:37;;;;;;;2.03;0.70;;;1.80;99.90;;;;;;5031649;28;20099;-40
2023/03/06 01:23:03;;;;;;;6.30;1.15;;;1.90;99.90;;;;;;5049417;28;20046;-40
2023/03/06 01:25:28;;;;;;;6.07;0.95;;;1.90;99.90;;;;;;5049891;28;20045;-40
2023/03/06 01:27:54;;;;;;;3.22;0.73;;;1.90;99.90;;;;;;5049363;28;20052;-40
2023/03/06 01:30:20;;;;;;;3.58;0.70;;;1.90;99.90;;;;;;5049669;28;20068;-40
2023/03/06 01:32:46;;;;;;;5.07;1.85;;;1.90;99.90;;;;;;5049902;28;20059;-40
2023/03/06 01:35:13;;;;;;;5.45;1.38;;;1.90;99.90;;;;;;5049245;28;20051;-40
2023/03/06 01:37:39;;;;;;;3.38;1.10;;;1.90;99.90;;;;;;5049631;28;20076;-40
2023/03/06 01:40:06;;;;;;;7.07;1.00;;;1.90;99.90;;;;;;5049449;28;20084;-40
2023/03/06 01:42:32;;;;;;;5.47;1.00;;;1.80;99.90;;;;;;5049635;28;20060;-40
2023/03/06 01:45:00;;;;;;;3.10;0.90;;;1.90;99.90;;;;;;5049555;28;20049;-40
2023/03/06 01:47:25;;;;;;;5.55;1.60;;;1.90;99.90;;;;;;5050216;28;20048;-40
2023/03/06 01:49:52;;;;;;;4.93;0.93;;;1.80;99.90;;;;;;5049434;28;20568;-40
2023/03/06 01:52:21;;;;;;;5.28;1.65;;;1.80;99.90;;;;;;5047751;28;20494;-40
2023/03/06 01:54:54;;;;;;;6.65;1.33;;;1.80;99.90;;;;;;5049565;28;20049;-40
2023/03/06 01:57:23;;;;;;;5.10;0.90;;;1.80;99.90;;;;;;5049028;28;20048;-40
2023/03/06 01:59:54;;;;;;;4.15;0.73;;;1.80;99.90;;;;;;5048990;28;20103;-40
2023/03/06 02:02:20;;;;;;;6.28;1.33;;;1.80;99.90;;;;;;5048574;28;20136;-40
2023/03/06 02:04:47;;;;;;;7.65;1.00;;;1.70;99.90;;;;;;5048643;28;20501;-40
2023/03/06 02:07:15;;;;;;;2.03;0.80;;;1.80;99.90;;;;;;5048277;28;20479;-40
2023/03/06 02:09:41;;;;;;;5.07;1.35;;;1.70;99.90;;;;;;5048659;28;20051;-40
2023/03/06 02:12:10;;;;;;;7.53;1.48;;;1.70;99.90;;;;;;5048054;28;20755;-40
2023/03/06 02:14:37;;;;;;;5.65;1.60;;;1.70;99.90;;;;;;5048594;28;20190;-40
2023/03/06 02:17:03;;;;;;;6.72;1.13;;;1.70;99.90;;;;;;5048259;28;20040;-40
2023/03/06 02:19:54;;;;;;;4.93;1.42;;;2.10;99.90;;;;;;5048383;28;20486;-40
2023/03/06 02:22:21;;;;;;;6.93;1.40;;;1.60;99.90;;;;;;5048314;28;20051;-40
2023/03/06 02:25:04;;;;;;;5.95;1.50;;;1.60;99.90;;;;;;5047370;28;20471;-40
2023/03/06 02:27:30;;;;;;;9.77;1.25;;;1.60;99.90;;;;;;5047648;28;20048;-40
2023/03/06 02:29:56;;;;;;;9.77;1.20;;;1.60;99.90;;;;;;5047600;28;20598;-40
2023/03/06 02:32:21;;;;;;;4.03;2.20;;;1.70;99.90;;;;;;5062442;28;20037;-40
2023/03/06 02:34:51;;;;;;;5.28;1.23;;;1.60;99.90;;;;;;5048059;28;20037;-40
2023/03/06 02:37:17;;;;;;;5.93;1.05;;;1.60;99.90;;;;;;5046817;28;20445;-40
2023/03/06 02:39:50;;;;;;;7.50;1.50;;;1.50;99.90;;;;;;5048298;28;20045;-40
2023/03/06 02:42:21;;;;;;;9.25;1.70;;;1.50;99.90;;;;;;5047386;28;20521;-40
2023/03/06 02:44:48;;;;;;;9.68;2.38;;;1.40;99.90;;;;;;5048020;28;20044;-40
2023/03/06 02:47:13;;;;;;;11.60;2.05;;;1.50;99.90;;;;;;5048034;28;20076;-40
2023/03/06 02:49:39;;;;;;;5.25;1.27;;;1.40;99.90;;;;;;5047633;28;20076;-40
2023/03/06 02:52:06;;;;;;;9.50;1.48;;;1.70;99.90;;;;;;5047559;28;20126;-40
2023/03/06 02:54:32;;;;;;;6.60;1.30;;;1.20;99.90;;;;;;5047919;28;20045;-40
2023/03/06 02:56:58;;;;;;;4.93;1.40;;;1.10;99.90;;;;;;5047383;28;20048;-40
2023/03/06 02:59:24;;;;;;;7.43;2.03;;;1.00;99.90;;;;;;5047535;28;20053;-40
2023/03/06 03:01:49;;;;;;;6.43;1.55;;;1.00;99.90;;;;;;5047367;28;20111;-40
2023/03/06 03:04:15;;;;;;;5.03;2.00;;;0.90;99.90;;;;;;5047012;28;20033;-40
2023/03/06 03:06:41;;;;;;;4.22;2.50;;;0.80;99.90;;;;;;5047230;28;20056;-40
2023/03/06 03:09:06;;;;;;;8.10;2.60;;;0.90;99.90;;;;;;5047362;28;20064;-40
2023/03/06 03:11:32;;;;;;;6.03;2.20;;;0.70;99.90;;;;;;5046929;28;20045;-40
2023/03/06 03:13:58;;;;;;;5.45;2.20;;;0.60;99.90;;;;;;5045766;28;20049;-40
2023/03/06 03:16:23;;;;;;;4.82;1.48;;;0.70;99.90;;;;;;5047264;28;20481;-40
2023/03/06 03:18:50;;;;;;;4.20;1.73;;;0.60;99.90;;;;;;5047094;28;20045;-40
2023/03/06 03:21:16;;;;;;;3.50;1.52;;;0.60;99.90;;;;;;5045990;28;20383;-40
2023/03/06 03:23:41;;;;;;;7.05;2.25;;;0.60;99.90;;;;;;5047453;28;20055;-40
2023/03/06 03:26:09;;;;;;;8.43;2.28;;;0.50;99.90;;;;;;5047639;28;20040;-40
2023/03/06 03:28:35;;;;;;;11.32;2.45;;;0.50;99.90;;;;;;5047374;28;20518;-40
2023/03/06 03:31:05;;;;;;;11.00;3.20;;;0.50;99.90;;;;;;5047832;28;20045;-40
2023/03/06 03:33:32;;;;;;;10.90;2.88;;;0.40;99.90;;;;;;5047767;28;20048;-40
2023/03/06 03:35:59;;;;;;;12.15;3.30;;;0.40;99.90;;;;;;5046812;28;20382;-40
2023/03/06 03:38:24;;;;;;;10.30;2.97;;;0.50;99.90;;;;;;5046795;28;20491;-40
2023/03/06 03:40:50;;;;;;;8.63;3.30;;;0.40;99.90;;;;;;5047058;28;20080;-40
2023/03/06 03:43:16;;;;;;;13.95;3.60;;;0.50;99.90;;;;;;5046475;28;20511;-40
2023/03/06 03:45:42;;;;;;;10.95;3.53;;;0.40;99.90;;;;;;5047019;28;20041;-40
2023/03/06 03:48:08;;;;;;;11.80;3.65;;;0.40;99.90;;;;;;5047096;28;20142;-40
2023/03/06 03:50:33;;;;;;;10.52;3.00;;;0.40;99.90;;;;;;5046567;28;20484;-40
2023/03/06 03:52:59;;;;;;;7.43;2.53;;;0.40;99.90;;;;;;5046754;28;20110;-40
2023/03/06 03:55:25;;;;;;;6.53;2.28;;;0.40;99.90;;;;;;5046724;28;20045;-40
2023/03/06 03:57:51;;;;;;;6.28;2.10;;;0.70;99.90;;;;;;5045996;28;20052;-40
2023/03/06 04:00:17;;;;;;;4.75;1.77;;;0.40;99.90;;;;;;5046567;28;20040;-40
2023/03/06 04:02:43;;;;;;;5.20;1.67;;;0.30;99.90;;;;;;5046919;28;20698;-40
2023/03/06 04:05:11;;;;;;;8.30;1.90;;;0.40;99.90;;;;;;5047293;28;20477;-40
2023/03/06 04:07:37;;;;;;;5.43;1.60;;;0.40;99.90;;;;;;5046779;28;20045;-40
2023/03/06 04:10:04;;;;;;;6.70;2.00;;;0.40;99.90;;;;;;5044957;28;20053;-40
2023/03/06 04:12:30;;;;;;;9.82;2.30;;;0.20;99.90;;;;;;5046725;28;20103;-40
2023/03/06 04:14:56;;;;;;;6.93;1.90;;;0.40;99.90;;;;;;5046766;28;20466;-40
2023/03/06 04:17:21;;;;;;;6.78;1.30;;;0.40;99.90;;;;;;5046723;28;20056;-40
2023/03/06 04:19:47;;;;;;;7.18;1.75;;;0.10;99.90;;;;;;5046372;28;20844;-40
2023/03/06 04:22:13;;;;;;;6.07;2.33;;;0.30;99.90;;;;;;5046534;28;20115;-40
2023/03/06 04:24:38;;;;;;;6.47;1.25;;;0.10;99.90;;;;;;5045771;28;20123;-40
2023/03/06 04:27:04;;;;;;;5.32;1.95;;;0.10;99.90;;;;;;5045994;28;20080;-40
2023/03/06 04:29:30;;;;;;;3.63;1.17;;;0.00;99.90;;;;;;5045956;28;20056;-40
2023/03/06 04:31:55;;;;;;;4.63;1.30;;;0.10;99.90;;;;;;5045884;28;20041;-40
2023/03/06 04:34:21;;;;;;;2.53;0.80;;;0.00;99.90;;;;;;5046071;28;20044;-40
2023/03/06 04:36:47;;;;;;;3.40;1.27;;;0.00;99.90;;;;;;5046436;28;20051;-40
2023/03/06 04:39:14;;;;;;;4.72;0.93;;;0.00;99.90;;;;;;5046513;28;20841;-40
2023/03/06 04:41:40;;;;;;;6.28;1.42;;;0.00;99.90;;;;;;5046172;28;20121;-40
2023/03/06 04:44:06;;;;;;;8.00;1.50;;;-0.10;99.90;;;;;;5046332;28;20124;-40
2023/03/06 04:46:33;;;;;;;6.00;1.77;;;-0.10;99.90;;;;;;5045810;28;20604;-40
2023/03/06 04:48:59;;;;;;;6.95;1.15;;;-0.10;99.90;;;;;;5046350;28;20049;-40
2023/03/06 04:51:24;;;;;;;5.72;1.38;;;0.00;99.90;;;;;;5046142;28;20076;-40
2023/03/06 04:53:51;;;;;;;5.88;1.02;;;0.00;99.90;;;;;;5045239;28;20392;-40
2023/03/06 04:56:17;;;;;;;4.43;1.00;;;0.00;99.90;;;;;;5045911;28;20051;-40
2023/03/06 04:58:43;;;;;;;4.63;1.08;;;0.00;99.90;;;;;;5045113;28;20055;-40
2023/03/06 05:01:09;;;;;;;3.03;0.70;;;0.00;99.90;;;;;;5045747;28;20093;-40
2023/03/06 05:03:35;;;;;;;5.55;1.17;;;0.00;99.90;;;;;;5045099;28;20127;-40
2023/03/06 05:06:01;;;;;;;7.22;1.58;;;0.00;99.90;;;;;;5045502;28;20357;-40
2023/03/06 05:08:27;;;;;;;5.00;1.23;;;0.00;99.90;;;;;;5045196;28;20045;-40
2023/03/06 05:11:00;;;;;;;4.15;1.08;;;0.10;99.90;;;;;;5044886;28;20790;-40
2023/03/06 05:13:26;;;;;;;6.63;1.60;;;0.00;99.90;;;;;;5045352;28;20591;-40
2023/03/06 05:15:52;;;;;;;7.65;1.45;;;0.50;99.90;;;;;;5044544;28;20041;-40
2023/03/06 05:18:19;;;;;;;5.40;1.10;;;0.00;99.90;;;;;;5044767;28;20410;-40
2023/03/06 05:20:45;;;;;;;5.43;1.52;;;0.30;99.90;;;;;;5045242;28;20048;-40
2023/03/06 05:23:11;;;;;;;7.32;1.30;;;0.00;99.90;;;;;;5045757;28;20433;-40
2023/03/06 05:25:39;;;;;;;5.65;1.30;;;0.00;99.90;;;;;;5045316;28;20107;-40
2023/03/06 05:28:05;;;;;;;6.13;1.23;;;-0.20;99.90;;;;;;5045186;28;20057;-40
2023/03/06 05:30:31;;;;;;;5.18;1.10;;;-0.10;99.90;;;;;;5045096;28;20052;-40
2023/03/06 05:32:57;;;;;;;6.82;1.33;;;-0.10;99.90;;;;;;5045017;28;20120;-40
2023/03/06 05:35:23;;;;;;;6.72;1.50;;;-0.20;99.90;;;;;;5045399;28;20036;-40
2023/03/06 05:37:49;;;;;;;8.50;1.98;;;-0.20;99.90;;;;;;5044603;28;20059;-40
2023/03/06 05:40:16;;;;;;;10.02;1.80;;;-0.10;99.90;;;;;;5045311;28;20045;-40
2023/03/06 05:42:42;;;;;;;8.25;1.65;;;-0.20;99.90;;;;;;5045410;28;20040;-40
2023/03/06 05:45:08;;;;;;;6.43;1.88;;;-0.10;99.90;;;;;;5045557;28;20755;-40
2023/03/06 05:47:34;;;;;;;9.80;1.58;;;-0.10;99.90;;;;;;5045448;28;20298;-40
2023/03/06 05:50:00;;;;;;;13.77;1.98;;;0.00;99.90;;;;;;5044976;28;20148;-40
2023/03/06 05:52:25;;;;;;;5.75;1.38;;;0.00;99.90;;;;;;5010918;28;20423;-40
2023/03/06 05:54:52;;;;;;;13.60;2.15;;;0.00;99.90;;;;;;5044967;28;20052;-40
2023/03/06 05:57:19;;;;;;;5.38;1.50;;;0.00;99.90;;;;;;5044702;28;20478;-40
2023/03/06 05:59:45;;;;;;;9.05;2.13;;;0.00;99.90;;;;;;5048151;28;20041;-40
2023/03/06 06:02:11;;;;;;;9.02;1.52;;;0.00;99.90;;;;;;5048781;28;20391;-40
2023/03/06 06:04:37;;;;;;;10.18;1.92;;;0.00;99.90;;;;;;5047605;28;20203;-40
2023/03/06 06:07:04;;;;;;;10.38;1.55;;;0.00;99.90;;;;;;5048827;28;20619;-40
2023/03/06 06:09:31;;;;;;;22.40;2.75;;;0.10;99.90;;;;;;5049107;28;20059;-40
2023/03/06 06:12:02;;;;;;;11.32;1.70;;;0.10;99.90;;;;;;5049038;28;20052;-40
2023/03/06 06:14:29;;;;;;;13.50;2.00;;;0.10;99.90;;;;;;5049031;28;20040;-40
2023/03/06 06:16:55;;;;;;;20.30;2.92;;;0.00;99.90;;;;;;5048252;28;20032;-40
2023/03/06 06:19:22;;;;;;;17.75;2.65;;;0.00;99.90;;;;;;5048574;28;20122;-40
2023/03/06 06:21:52;;;;;;;10.25;2.20;;;0.10;99.90;;;;;;5047314;28;20059;-40
2023/03/06 06:24:21;;;;;;;7.40;1.80;;;0.00;99.90;;;;;;5048469;28;20056;-40
2023/03/06 06:26:49;;;;;;;6.65;1.55;;;0.30;99.90;;;;;;5048189;28;20429;-40
2023/03/06 06:29:15;;;;;;;9.98;2.15;;;0.40;99.90;;;;;;5048273;28;20784;-40
2023/03/06 06:31:41;;;;;;;8.13;1.83;;;0.00;99.90;;;;;;5048028;28;20076;-40
2023/03/06 06:34:09;;;;;;;6.25;1.83;;;0.00;99.90;;;;;;5047536;28;20047;-40
2023/03/06 06:36:35;;;;;;;5.65;2.03;;;0.00;99.90;;;;;;5048250;28;20044;-40
2023/03/06 06:39:01;;;;;;;6.97;1.83;;;-0.10;99.90;;;;;;5048286;28;20047;-40
2023/03/06 06:41:27;;;;;;;10.45;2.38;;;-0.10;99.90;;;;;;5048446;28;20078;-40
2023/03/06 06:43:53;;;;;;;11.93;2.10;;;-0.20;99.90;;;;;;5047888;28;20045;-40
2023/03/06 06:46:19;;;;;;;5.20;2.00;;;-0.20;99.90;;;;;;5048585;28;20044;-40
2023/03/06 06:48:53;;;;;;;10.45;2.30;;;-0.20;99.90;;;;;;5047975;28;20072;-40
2023/03/06 06:51:22;;;;;;;10.45;2.72;;;-0.30;99.90;;;;;;5047582;28;20060;-40
2023/03/06 06:53:51;;;;;;;11.50;2.22;;;-0.20;99.90;;;;;;5045474;28;20624;-40
2023/03/06 06:56:17;;;;;;;16.98;2.88;;;-0.20;99.90;;;;;;5047753;28;20045;-40
2023/03/06 06:58:42;;;;;;;17.17;3.58;;;-0.10;99.90;;;;;;5047576;28;20063;-40
2023/03/06 07:01:10;;;;;;;12.05;2.97;;;-0.10;99.90;;;;;;5047954;28;20475;-40
2023/03/06 07:03:37;;;;;;;11.85;3.28;;;0.00;99.90;;;;;;5048448;28;20057;-40
2023/03/06 07:06:03;;;;;;;14.98;3.08;;;0.10;99.90;;;;;;5047551;28;20501;-40
2023/03/06 07:08:29;;;;;;;6.93;2.00;;;0.10;99.90;;;;;;5046462;28;20231;-40
2023/03/06 07:10:55;;;;;;;12.13;3.25;;;0.20;99.90;;;;;;5047495;28;20372;-40
2023/03/06 07:13:21;;;;;;;7.50;2.63;;;0.20;99.90;;;;;;5047597;28;20132;-40
2023/03/06 07:15:47;;;;;;;16.75;4.22;;;0.30;99.90;;;;;;5047484;28;20041;-40
2023/03/06 07:18:13;;;;;;;12.57;4.65;;;0.40;99.90;;;;;;5047723;28;20076;-40
2023/03/06 07:20:38;;;;;;;21.15;5.30;;;0.50;99.90;;;;;;5045619;28;20045;-40
2023/03/06 07:23:09;;;;;;;15.88;5.25;;;0.50;99.90;;;;;;5047135;28;20056;-41
2023/03/06 07:25:36;;;;;;;12.93;4.80;;;0.50;99.90;;;;;;5047321;28;20458;-40
2023/03/06 07:28:01;;;;;;;13.70;4.93;;;0.50;99.90;;;;;;5047231;28;20044;-40
2023/03/06 07:30:27;;;;;;;11.27;4.57;;;0.70;99.90;;;;;;5047228;28;20577;-41
2023/03/06 07:32:57;;;;;;;12.63;5.00;;;0.60;99.90;;;;;;5047519;28;20100;-40
2023/03/06 07:35:23;;;;;;;15.18;4.85;;;0.40;99.90;;;;;;5047759;28;20088;-40
2023/03/06 07:37:50;;;;;;;18.13;5.55;;;0.40;99.90;;;;;;5046962;28;20063;-40
2023/03/06 07:40:18;;;;;;;15.93;4.50;;;0.30;99.90;;;;;;5046977;28;20051;-40
2023/03/06 07:42:44;;;;;;;10.35;4.03;;;0.30;99.90;;;;;;5047057;28;20045;-40
2023/03/06 07:45:11;;;;;;;7.82;3.47;;;0.40;99.90;;;;;;5046363;28;20418;-40
2023/03/06 07:47:38;;;;;;;7.88;3.17;;;0.30;99.90;;;;;;5045827;28;20499;-40
2023/03/06 07:50:06;;;;;;;10.68;3.22;;;0.30;99.90;;;;;;5046024;28;20084;-40
2023/03/06 07:52:32;;;;;;;13.90;3.78;;;0.30;99.90;;;;;;5046021;28;20053;-40
2023/03/06 07:54:59;;;;;;;12.32;3.42;;;0.30;99.90;;;;;;5046120;28;20045;-40
2023/03/06 07:57:25;;;;;;;13.20;3.55;;;0.20;99.90;;;;;;5045988;28;20124;-40
2023/03/06 07:59:50;;;;;;;10.85;3.20;;;0.30;99.90;;;;;;5046069;28;20502;-40
2023/03/06 08:02:16;;;;;;;11.05;3.17;;;0.30;99.90;;;;;;5046535;28;20048;-41
2023/03/06 08:04:42;;;;;;;10.13;3.08;;;0.50;99.90;;;;;;5046053;28;20045;-40
2023/03/06 08:07:07;;;;;;;7.70;2.65;;;0.50;99.90;;;;;;5045460;28;20048;-40
2023/03/06 08:09:34;;;;;;;7.45;2.83;;;1.20;99.90;;;;;;5044937;28;20137;-40
2023/03/06 08:12:00;;;;;;;8.63;2.92;;;0.60;99.90;;;;;;5046117;28;20049;-40
2023/03/06 08:14:25;;;;;;;7.57;3.20;;;0.60;99.90;;;;;;5046345;28;20040;-40
2023/03/06 08:16:54;;;;;;;7.72;2.92;;;0.70;99.90;;;;;;5046321;28;20044;-40
2023/03/06 08:19:20;;;;;;;8.15;2.63;;;0.60;99.90;;;;;;5046045;28;20182;-40
2023/03/06 08:21:45;;;;;;;12.90;3.50;;;0.70;99.90;;;;;;5045422;28;20547;-40
2023/03/06 08:24:12;;;;;;;7.30;2.63;;;0.70;99.90;;;;;;5045945;28;20067;-40
2023/03/06 08:26:38;;;;;;;8.55;3.10;;;0.70;99.90;;;;;;5045840;28;20056;-40
2023/03/06 08:29:03;;;;;;;6.32;2.60;;;0.70;99.90;;;;;;5045910;28;20049;-40
2023/03/06 08:31:29;;;;;;;7.30;2.28;;;0.80;99.90;;;;;;5045874;28;20040;-40
2023/03/06 08:33:56;;;;;;;9.32;3.22;;;1.00;99.90;;;;;;5045654;28;20450;-40
2023/03/06 08:36:22;;;;;;;6.70;2.58;;;1.00;99.90;;;;;;5045238;28;20183;-40
2023/03/06 08:38:48;;;;;;;9.10;2.30;;;1.20;99.90;;;;;;5046419;28;20056;-40
2023/03/06 08:41:14;;;;;;;5.40;1.77;;;1.40;99.90;;;;;;5045736;28;20041;-40
2023/03/06 08:43:40;;;;;;;4.97;2.05;;;1.80;99.90;;;;;;5045968;28;20055;-40
2023/03/06 08:46:06;;;;;;;3.60;1.52;;;2.40;99.90;;;;;;5044881;28;20255;-40
2023/03/06 08:48:31;;;;;;;4.82;1.90;;;2.90;99.90;;;;;;5045106;28;20092;-40
2023/03/06 08:50:57;;;;;;;6.90;1.83;;;2.80;99.90;;;;;;5045409;28;20052;-40
2023/03/06 08:53:24;;;;;;;5.20;1.98;;;3.00;99.90;;;;;;5045304;28;20091;-40
2023/03/06 08:55:50;;;;;;;6.22;1.70;;;3.20;99.90;;;;;;5045802;28;20056;-40
2023/03/06 08:58:16;;;;;;;3.72;1.35;;;3.50;99.90;;;;;;5045152;28;20123;-40
2023/03/06 09:00:42;;;;;;;5.80;1.83;;;3.90;99.90;;;;;;5045726;28;20127;-41
2023/03/06 09:03:08;;;;;;;3.63;1.20;;;3.90;99.90;;;;;;5046031;28;20152;-41
2023/03/06 09:05:33;;;;;;;3.00;1.10;;;3.70;99.90;;;;;;5045359;28;20428;-41
2023/03/06 09:07:59;;;;;;;4.82;1.30;;;3.90;99.90;;;;;;5045720;28;20056;-40
2023/03/06 09:10:26;;;;;;;4.00;1.02;;;3.90;99.90;;;;;;5045342;28;20084;-40
2023/03/06 09:12:52;;;;;;;4.90;1.58;;;4.10;99.90;;;;;;5045718;28;20033;-40
2023/03/06 09:15:19;;;;;;;4.82;1.23;;;5.10;99.90;;;;;;5045821;28;20068;-41
2023/03/06 09:17:46;;;;;;;4.60;1.02;;;4.20;99.90;;;;;;5045121;28;20118;-41
2023/03/06 09:20:12;;;;;;;6.68;1.10;;;4.30;99.90;;;;;;5045470;28;20048;-41
2023/03/06 09:22:41;;;;;;;4.65;1.02;;;3.30;99.90;;;;;;5045877;28;20041;-41
2023/03/06 09:25:08;;;;;;;2.30;1.02;;;4.40;99.90;;;;;;5045637;28;20116;-40
2023/03/06 09:27:34;;;;;;;4.90;0.75;;;4.50;99.90;;;;;;5045516;28;20064;-41
2023/03/06 09:29:59;;;;;;;3.25;1.00;;;4.60;99.90;;;;;;5060306;28;20048;-41
2023/03/06 09:32:25;;;;;;;4.78;0.90;;;4.80;99.90;;;;;;5044685;28;20033;-41
2023/03/06 09:34:51;;;;;;;9.45;1.95;;;4.90;99.90;;;;;;5048616;28;20601;-40
2023/03/06 09:37:17;;;;;;;3.90;0.60;;;6.10;99.90;;;;;;5048672;28;20490;-41
2023/03/06 09:39:43;;;;;;;3.20;0.57;;;6.30;99.90;;;;;;5049743;28;20052;-41
2023/03/06 09:42:14;;;;;;;1.17;0.20;;;5.30;99.90;;;;;;5049529;28;20076;-41
2023/03/06 09:44:41;;;;;;;3.45;0.20;;;5.60;99.90;;;;;;5049047;28;20479;-41
2023/03/06 09:47:30;;;;;;;2.97;0.30;;;6.20;99.90;;;;;;5049295;28;20045;-41
2023/03/06 09:50:29;;;;;;;3.05;0.45;;;6.00;99.90;;;;;;5048715;28;20049;-41
2023/03/06 09:53:35;;;;;;;3.15;0.57;;;5.90;99.90;;;;;;5049418;28;20061;-41
2023/03/06 09:56:19;;;;;;;1.98;0.45;;;5.90;99.90;;;;;;5049145;28;20056;-41
2023/03/06 09:59:04;;;;;;;1.15;0.30;;;5.90;99.90;;;;;;5048705;28;20145;-41
2023/03/06 10:01:34;;;;;;;4.70;0.40;;;6.60;99.90;;;;;;5048499;28;20049;-41
2023/03/06 10:04:15;;;;;;;3.45;0.30;;;5.90;99.90;;;;;;5048910;28;20045;-41
2023/03/06 10:06:47;;;;;;;3.85;0.63;;;6.00;99.90;;;;;;5048365;28;20049;-41
2023/03/06 10:09:25;;;;;;;0.82;0.30;;;6.10;99.90;;;;;;5049037;28;20045;-41
2023/03/06 10:12:02;;;;;;;1.38;0.38;;;6.00;99.90;;;;;;5048856;28;20522;-40
2023/03/06 10:14:40;;;;;;;3.47;0.30;;;5.80;99.90;;;;;;5048442;28;20037;-41
2023/03/06 10:17:17;;;;;;;3.20;0.60;;;7.20;99.90;;;;;;5048669;28;20040;-39
2023/03/06 10:19:46;;;;;;;3.55;0.20;;;6.80;99.90;;;;;;5038052;28;20076;-41
2023/03/06 10:22:29;;;;;;;5.28;1.13;;;7.10;99.90;;;;;;5004603;28;20058;-43
2023/03/06 10:25:18;;;;;;;3.05;0.40;;;8.20;99.90;;;;;;5027083;28;20051;-44
2023/03/06 10:27:46;;;;;;;3.95;0.20;;;7.60;99.90;;;;;;5027976;28;20045;-46
2023/03/06 10:31:02;;;;;;;2.17;0.10;;;7.90;99.90;;;;;;5028306;28;20758;-47
2023/03/06 10:33:36;;;;;;;2.28;0.40;;;7.70;99.90;;;;;;5026003;28;20055;-46
2023/03/06 10:36:03;;;;;;;2.10;0.20;;;7.50;99.90;;;;;;5042258;28;20079;-47
2023/03/06 10:38:29;;;;;;;1.85;0.22;;;7.50;99.90;;;;;;5026079;28;20491;-46
2023/03/06 10:41:09;;;;;;;1.75;0.28;;;7.50;99.90;;;;;;5025446;28;20085;-45
2023/03/06 10:43:43;;;;;;;1.00;0.10;;;7.90;99.90;;;;;;5024775;28;20126;-44
2023/03/06 10:46:24;;;;;;;0.65;0.10;;;7.50;99.90;;;;;;5025391;28;20049;-46
2023/03/06 10:48:58;;;;;;;2.42;0.00;;;7.80;99.90;;;;;;5009058;28;20053;-44
2023/03/06 10:51:25;;;;;;;4.15;0.20;;;8.40;99.90;;;;;;5025229;28;20042;-44
2023/03/06 10:54:10;;;;;;;2.22;0.20;;;8.00;99.90;;;;;;5024966;28;20065;-45
2023/03/06 10:56:38;;;;;;;3.58;0.20;;;7.90;99.90;;;;;;5024504;28;20128;-44
2023/03/06 10:59:13;;;;;;;1.48;0.10;;;8.10;99.90;;;;;;5026050;28;20048;-45
2023/03/06 11:01:40;;;;;;;2.42;0.20;;;8.60;99.90;;;;;;5003658;28;20077;-43
2023/03/06 11:04:33;;;;;;;2.03;0.00;;;9.30;99.90;;;;;;5005584;28;20045;-41
2023/03/06 11:07:15;;;;;;;4.05;0.38;;;9.30;99.90;;;;;;5024700;28;20052;-45
2023/03/06 11:09:46;;;;;;;2.67;0.10;;;9.30;99.90;;;;;;5022550;28;20041;-44
2023/03/06 11:12:24;;;;;;;3.63;0.20;;;9.10;99.90;;;;;;5038711;28;20037;-46
2023/03/06 11:15:20;;;;;;;1.38;0.25;;;8.80;99.90;;;;;;5038073;28;20041;-48
2023/03/06 11:17:57;;;;;;;4.43;0.20;;;8.50;99.90;;;;;;5000572;28;20049;-46
2023/03/06 11:20:40;;;;;;;0.50;0.10;;;8.20;99.90;;;;;;5005065;28;20049;-45
2023/03/06 11:23:09;;;;;;;1.58;0.10;;;7.90;99.90;;;;;;5025448;28;20049;-44
2023/03/06 11:25:56;;;;;;;2.40;0.75;;;8.10;99.90;;;;;;5025213;28;20111;-46
2023/03/06 11:29:05;;;;;;;3.38;0.13;;;8.00;99.90;;;;;;5024157;28;20092;-45
2023/03/06 11:31:55;;;;;;;1.15;0.10;;;7.80;99.90;;;;;;5024900;28;20053;-41
2023/03/06 11:34:55;;;;;;;1.42;0.00;;;7.70;99.90;;;;;;5021810;28;20037;-41
2023/03/06 11:37:56;;;;;;;2.65;0.20;;;7.60;99.90;;;;;;5025205;28;20041;-41
2023/03/06 11:40:53;;;;;;;1.80;0.10;;;7.50;99.90;;;;;;5025156;28;20049;-43
2023/03/06 11:43:44;;;;;;;1.52;0.10;;;7.60;99.90;;;;;;5025788;28;20103;-48
2023/03/06 11:46:25;;;;;;;1.40;0.10;;;7.70;99.90;;;;;;5022823;28;20053;-47
2023/03/06 11:49:15;;;;;;;0.68;0.10;;;7.90;99.90;;;;;;5038670;28;20057;-48
2023/03/06 11:51:51;;;;;;;2.75;0.10;;;8.10;99.90;;;;;;5023717;28;20815;-44
2023/03/06 11:54:18;;;;;;;0.40;0.00;;;8.10;99.90;;;;;;5023868;28;20148;-45
2023/03/06 11:57:05;;;;;;;2.05;0.10;;;8.20;99.90;;;;;;4989274;28;20041;-52
2023/03/06 12:00:00;;;;;;;1.73;0.10;;;8.20;99.90;;;;;;5025595;28;20045;-48
2023/03/06 12:02:31;;;;;;;1.13;0.10;;;8.20;99.90;;;;;;5027126;28;20400;-44
2023/03/06 12:05:29;;;;;;;1.30;0.30;;;8.20;99.90;;;;;;5027262;28;20046;-43
2023/03/06 12:08:31;;;;;;;0.43;0.10;;;8.00;99.90;;;;;;5026961;28;20041;-43
2023/03/06 12:11:04;;;;;;;1.77;0.10;;;7.90;99.90;;;;;;5026935;28;20099;-43
2023/03/06 12:13:49;;;;;;;3.08;0.10;;;8.80;99.90;;;;;;5027080;28;20048;-44
2023/03/06 12:16:33;;;;;;;2.95;0.08;;;7.80;99.90;;;;;;5027266;28;20045;-43
2023/03/06 12:19:08;;;;;;;2.55;0.10;;;8.40;99.90;;;;;;5026614;28;20159;-43
2023/03/06 12:22:28;;;;;;;1.42;0.00;;;7.50;99.90;;;;;;5027022;28;20037;-43
2023/03/06 12:25:25;;;;;;;1.73;0.10;;;7.40;99.90;;;;;;4984619;28;20057;-43
2023/03/06 12:28:21;;;;;;;1.00;0.00;;;7.30;99.90;;;;;;5026625;28;20037;-44
2023/03/06 12:30:56;;;;;;;4.88;0.30;;;7.30;99.90;;;;;;5026779;28;20054;-43
2023/03/06 12:33:50;;;;;;;1.45;0.45;;;7.30;99.90;;;;;;5026727;28;20037;-43
2023/03/06 12:36:34;;;;;;;0.68;0.10;;;7.30;99.90;;;;;;5024917;28;20053;-43
2023/03/06 12:39:41;;;;;;;2.10;0.45;;;7.50;99.90;;;;;;5026724;28;20041;-43
2023/03/06 12:42:21;;;;;;;4.03;0.10;;;7.60;99.90;;;;;;5003937;28;20053;-44
2023/03/06 12:44:58;;;;;;;0.35;0.10;;;7.70;99.90;;;;;;5026764;28;20045;-44
2023/03/06 12:47:27;;;;;;;1.77;0.20;;;7.80;99.90;;;;;;5027297;28;20045;-43
2023/03/06 12:50:01;;;;;;;2.30;0.10;;;7.80;99.90;;;;;;5026584;28;20053;-44
2023/03/06 12:52:30;;;;;;;0.95;0.10;;;7.80;99.90;;;;;;5026516;28;20499;-43
2023/03/06 12:54:59;;;;;;;1.40;0.10;;;7.80;99.90;;;;;;5026826;28;20041;-44
2023/03/06 12:57:25;;;;;;;0.55;0.03;;;8.60;99.90;;;;;;5026035;28;20091;-43
2023/03/06 12:59:53;;;;;;;1.83;0.10;;;7.60;99.90;;;;;;5026509;28;20056;-43
2023/03/06 13:03:03;;;;;;;0.28;0.00;;;7.50;99.90;;;;;;5026622;28;20045;-44
2023/03/06 13:05:39;;;;;;;2.88;0.15;;;7.40;99.90;;;;;;5006333;28;20084;-44
2023/03/06 13:08:17;;;;;;;2.53;0.10;;;7.30;99.90;;;;;;5028186;28;20777;-42
2023/03/06 13:10:47;;;;;;;1.40;0.10;;;7.20;99.90;;;;;;5030366;28;20183;-44